ZKMAN TBPB-TFFR
Flight info
| Callsign | ZKMAN |
|---|---|
| Flight time | 1h 3m |
| Altitude | 24000 |
| Route | SEKUN DCT DOM DOM2Z |
| Aircraft | DH8D/M-SDE2E3FGRY/H |
Departure
| Time | 2026-04-26 05:02 |
|---|---|
| Airport | Grantley Adams International Airport (TBPB) |
Arrival
| Time | 2026-04-26 06:06 |
|---|---|
| Airport | Maryse Condé International Airport (TFFR) |
| Time | Latitude | Longitude | Altitude | Speed | Heading |
|---|---|---|---|---|---|
| 2026-04-26 04:38 | 13.07742 | -59.48922 | 177 ft | 0 kts | 346° |
| 2026-04-26 04:54 | 13.07741 | -59.48922 | 177 ft | 1 kts | 346° |
| 2026-04-26 04:54 | 13.07723 | -59.48917 | 177 ft | 3 kts | 346° |
| 2026-04-26 04:54 | 13.07702 | -59.48912 | 177 ft | 3 kts | 347° |
| 2026-04-26 04:54 | 13.07680 | -59.48907 | 177 ft | 3 kts | 347° |
| 2026-04-26 04:55 | 13.07662 | -59.48898 | 177 ft | 3 kts | 289° |
| 2026-04-26 04:55 | 13.07661 | -59.48886 | 177 ft | 0 kts | 256° |
| 2026-04-26 04:58 | 13.07661 | -59.48889 | 177 ft | 2 kts | 256° |
| 2026-04-26 04:58 | 13.07656 | -59.48907 | 177 ft | 5 kts | 255° |
| 2026-04-26 04:58 | 13.07642 | -59.48963 | 177 ft | 11 kts | 255° |
| 2026-04-26 04:58 | 13.07616 | -59.49064 | 177 ft | 18 kts | 257° |
| 2026-04-26 04:59 | 13.07582 | -59.49205 | 177 ft | 23 kts | 256° |
| 2026-04-26 04:59 | 13.07542 | -59.49370 | 177 ft | 25 kts | 256° |
| 2026-04-26 04:59 | 13.07495 | -59.49564 | 177 ft | 31 kts | 255° |
| 2026-04-26 04:59 | 13.07434 | -59.49797 | 177 ft | 35 kts | 256° |
| 2026-04-26 05:00 | 13.07379 | -59.50023 | 177 ft | 31 kts | 256° |
| 2026-04-26 05:00 | 13.07330 | -59.50219 | 177 ft | 20 kts | 256° |
| 2026-04-26 05:00 | 13.07295 | -59.50265 | 177 ft | 7 kts | 182° |
| 2026-04-26 05:00 | 13.07274 | -59.50262 | 177 ft | 0 kts | 168° |
| 2026-04-26 05:01 | 13.07267 | -59.50261 | 177 ft | 5 kts | 168° |
| 2026-04-26 05:01 | 13.07220 | -59.50248 | 177 ft | 4 kts | 123° |
| 2026-04-26 05:02 | 13.07220 | -59.50217 | 177 ft | 10 kts | 85° |
| 2026-04-26 05:02 | 13.07280 | -59.49961 | 177 ft | 72 kts | 76° |
| 2026-04-26 05:02 | 13.07463 | -59.49232 | 181 ft | 129 kts | 77° |
| 2026-04-26 05:02 | 13.07705 | -59.48308 | 809 ft | 124 kts | 76° |
| 2026-04-26 05:03 | 13.07998 | -59.47482 | 1661 ft | 115 kts | 73° |
| 2026-04-26 05:03 | 13.08299 | -59.46631 | 2164 ft | 128 kts | 76° |
| 2026-04-26 05:03 | 13.08550 | -59.45675 | 2682 ft | 143 kts | 80° |
| 2026-04-26 05:03 | 13.08795 | -59.44591 | 3164 ft | 159 kts | 81° |
| 2026-04-26 05:04 | 13.09049 | -59.43419 | 3775 ft | 169 kts | 80° |
| 2026-04-26 05:04 | 13.09304 | -59.42211 | 4410 ft | 176 kts | 79° |
| 2026-04-26 05:04 | 13.09567 | -59.40961 | 5061 ft | 180 kts | 79° |
| 2026-04-26 05:04 | 13.09840 | -59.39679 | 5712 ft | 184 kts | 78° |
| 2026-04-26 05:05 | 13.10131 | -59.38373 | 6350 ft | 188 kts | 77° |
| 2026-04-26 05:05 | 13.10448 | -59.37028 | 6994 ft | 192 kts | 77° |
| 2026-04-26 05:05 | 13.10797 | -59.35688 | 7598 ft | 197 kts | 70° |
| 2026-04-26 05:05 | 13.11668 | -59.34587 | 8180 ft | 204 kts | 34° |
| 2026-04-26 05:06 | 13.13052 | -59.34208 | 8756 ft | 210 kts | 357° |
| 2026-04-26 05:06 | 13.14454 | -59.34660 | 9351 ft | 212 kts | 331° |
| 2026-04-26 05:06 | 13.15707 | -59.35483 | 9935 ft | 213 kts | 324° |
| 2026-04-26 05:06 | 13.16953 | -59.36366 | 10517 ft | 214 kts | 324° |
| 2026-04-26 05:07 | 13.18195 | -59.37240 | 11063 ft | 216 kts | 324° |
| 2026-04-26 05:07 | 13.19449 | -59.38119 | 11590 ft | 218 kts | 324° |
| 2026-04-26 05:07 | 13.20721 | -59.39008 | 12094 ft | 220 kts | 324° |
| 2026-04-26 05:07 | 13.22016 | -59.39903 | 12595 ft | 222 kts | 324° |
| 2026-04-26 05:08 | 13.23316 | -59.40804 | 13090 ft | 224 kts | 324° |
| 2026-04-26 05:08 | 13.24608 | -59.41714 | 13577 ft | 225 kts | 323° |
| 2026-04-26 05:08 | 13.25911 | -59.42637 | 14055 ft | 226 kts | 323° |
| 2026-04-26 05:08 | 13.27234 | -59.43570 | 14542 ft | 227 kts | 323° |
| 2026-04-26 05:09 | 13.28542 | -59.44489 | 15006 ft | 228 kts | 323° |
| 2026-04-26 05:09 | 13.29865 | -59.45418 | 15445 ft | 229 kts | 323° |
| 2026-04-26 05:09 | 13.31197 | -59.46353 | 15870 ft | 231 kts | 323° |
| 2026-04-26 05:09 | 13.32554 | -59.47305 | 16288 ft | 233 kts | 323° |
| 2026-04-26 05:10 | 13.33899 | -59.48249 | 16690 ft | 234 kts | 323° |
| 2026-04-26 05:10 | 13.35259 | -59.49203 | 17077 ft | 236 kts | 323° |
| 2026-04-26 05:10 | 13.36624 | -59.50161 | 17452 ft | 238 kts | 323° |
| 2026-04-26 05:10 | 13.37998 | -59.51126 | 17817 ft | 239 kts | 323° |
| 2026-04-26 05:11 | 13.39393 | -59.52106 | 18175 ft | 241 kts | 323° |
| 2026-04-26 05:11 | 13.40782 | -59.53082 | 18522 ft | 242 kts | 323° |
| 2026-04-26 05:11 | 13.42185 | -59.54068 | 18863 ft | 244 kts | 323° |
| 2026-04-26 05:11 | 13.43589 | -59.55057 | 19199 ft | 245 kts | 323° |
| 2026-04-26 05:12 | 13.45007 | -59.56055 | 19528 ft | 247 kts | 322° |
| 2026-04-26 05:12 | 13.46435 | -59.57061 | 19848 ft | 248 kts | 322° |
| 2026-04-26 05:12 | 13.47865 | -59.58069 | 20157 ft | 250 kts | 322° |
| 2026-04-26 05:12 | 13.49308 | -59.59086 | 20456 ft | 251 kts | 322° |
| 2026-04-26 05:13 | 13.50757 | -59.60108 | 20747 ft | 253 kts | 322° |
| 2026-04-26 05:13 | 13.52236 | -59.61153 | 21035 ft | 254 kts | 322° |
| 2026-04-26 05:13 | 13.53701 | -59.62188 | 21308 ft | 256 kts | 322° |
| 2026-04-26 05:13 | 13.55179 | -59.63232 | 21576 ft | 257 kts | 322° |
| 2026-04-26 05:14 | 13.56655 | -59.64275 | 21834 ft | 259 kts | 322° |
| 2026-04-26 05:14 | 13.58150 | -59.65333 | 22088 ft | 260 kts | 322° |
| 2026-04-26 05:14 | 13.59160 | -59.66048 | 22253 ft | 261 kts | 322° |
| 2026-04-26 05:14 | 13.60664 | -59.67112 | 22492 ft | 262 kts | 322° |
| 2026-04-26 05:15 | 13.62174 | -59.68181 | 22723 ft | 263 kts | 322° |
| 2026-04-26 05:15 | 13.63714 | -59.69271 | 22949 ft | 265 kts | 322° |
| 2026-04-26 05:15 | 13.65236 | -59.70348 | 23166 ft | 266 kts | 322° |
| 2026-04-26 05:15 | 13.66767 | -59.71433 | 23373 ft | 267 kts | 322° |
| 2026-04-26 05:16 | 13.68300 | -59.72519 | 23575 ft | 268 kts | 322° |
| 2026-04-26 05:16 | 13.69841 | -59.73611 | 23760 ft | 269 kts | 322° |
| 2026-04-26 05:16 | 13.71394 | -59.74712 | 23867 ft | 273 kts | 322° |
| 2026-04-26 05:16 | 13.72976 | -59.75834 | 23928 ft | 278 kts | 322° |
| 2026-04-26 05:17 | 13.74599 | -59.76990 | 23955 ft | 284 kts | 322° |
| 2026-04-26 05:17 | 13.76232 | -59.78155 | 23964 ft | 289 kts | 322° |
| 2026-04-26 05:17 | 13.77898 | -59.79340 | 23967 ft | 295 kts | 322° |
| 2026-04-26 05:17 | 13.79601 | -59.80546 | 23968 ft | 299 kts | 323° |
| 2026-04-26 05:18 | 13.81346 | -59.81782 | 23969 ft | 304 kts | 322° |
| 2026-04-26 05:18 | 13.83089 | -59.83017 | 23968 ft | 308 kts | 322° |
| 2026-04-26 05:18 | 13.84856 | -59.84271 | 23968 ft | 311 kts | 322° |
| 2026-04-26 05:18 | 13.86637 | -59.85536 | 23968 ft | 314 kts | 322° |
| 2026-04-26 05:19 | 13.88433 | -59.86813 | 23968 ft | 316 kts | 322° |
| 2026-04-26 05:19 | 13.90246 | -59.88103 | 23967 ft | 319 kts | 322° |
| 2026-04-26 05:19 | 13.92077 | -59.89405 | 23967 ft | 321 kts | 322° |
| 2026-04-26 05:19 | 13.93936 | -59.90726 | 23967 ft | 323 kts | 323° |
| 2026-04-26 05:20 | 13.95781 | -59.92038 | 23967 ft | 324 kts | 323° |
| 2026-04-26 05:20 | 13.97635 | -59.93357 | 23967 ft | 326 kts | 323° |
| 2026-04-26 05:20 | 13.99493 | -59.94678 | 23967 ft | 327 kts | 323° |
| 2026-04-26 05:20 | 14.01364 | -59.96009 | 23967 ft | 328 kts | 323° |
| 2026-04-26 05:21 | 14.03259 | -59.97357 | 23967 ft | 329 kts | 323° |
| 2026-04-26 05:21 | 14.05117 | -59.98679 | 23967 ft | 330 kts | 323° |
| 2026-04-26 05:21 | 14.07026 | -60.00037 | 23967 ft | 331 kts | 323° |
| 2026-04-26 05:21 | 14.08913 | -60.01380 | 23967 ft | 331 kts | 323° |
| 2026-04-26 05:22 | 14.10832 | -60.02745 | 23966 ft | 332 kts | 323° |
| 2026-04-26 05:22 | 14.12727 | -60.04094 | 23966 ft | 332 kts | 323° |
| 2026-04-26 05:22 | 14.14622 | -60.05435 | 23968 ft | 333 kts | 322° |
| 2026-04-26 05:22 | 14.16535 | -60.06760 | 23968 ft | 332 kts | 322° |
| 2026-04-26 05:23 | 14.18462 | -60.08106 | 23966 ft | 332 kts | 322° |
| 2026-04-26 05:23 | 14.20348 | -60.09463 | 23995 ft | 331 kts | 322° |
| 2026-04-26 05:23 | 14.22217 | -60.10825 | 24010 ft | 331 kts | 322° |
| 2026-04-26 05:23 | 14.24088 | -60.12183 | 24016 ft | 331 kts | 322° |
| 2026-04-26 05:24 | 14.25975 | -60.13541 | 24019 ft | 332 kts | 322° |
| 2026-04-26 05:24 | 14.27866 | -60.14891 | 24020 ft | 332 kts | 322° |
| 2026-04-26 05:24 | 14.29761 | -60.16234 | 24021 ft | 333 kts | 322° |
| 2026-04-26 05:24 | 14.31663 | -60.17584 | 24021 ft | 333 kts | 322° |
| 2026-04-26 05:25 | 14.33558 | -60.18931 | 24021 ft | 333 kts | 322° |
| 2026-04-26 05:25 | 14.35481 | -60.20303 | 24021 ft | 334 kts | 322° |
| 2026-04-26 05:25 | 14.37412 | -60.21624 | 24021 ft | 335 kts | 326° |
| 2026-04-26 05:25 | 14.39428 | -60.22823 | 24021 ft | 336 kts | 328° |
| 2026-04-26 05:26 | 14.41473 | -60.23958 | 24021 ft | 336 kts | 329° |
| 2026-04-26 05:26 | 14.43537 | -60.25082 | 24021 ft | 336 kts | 329° |
| 2026-04-26 05:26 | 14.45598 | -60.26213 | 24021 ft | 336 kts | 329° |
| 2026-04-26 05:26 | 14.47676 | -60.27372 | 24021 ft | 336 kts | 328° |
| 2026-04-26 05:27 | 14.49715 | -60.28522 | 24021 ft | 336 kts | 328° |
| 2026-04-26 05:27 | 14.51762 | -60.29687 | 24021 ft | 336 kts | 328° |
| 2026-04-26 05:27 | 14.53799 | -60.30852 | 24021 ft | 336 kts | 328° |
| 2026-04-26 05:27 | 14.55837 | -60.32020 | 24021 ft | 336 kts | 328° |
| 2026-04-26 05:28 | 14.57876 | -60.33188 | 24021 ft | 336 kts | 328° |
| 2026-04-26 05:28 | 14.59908 | -60.34349 | 24007 ft | 336 kts | 328° |
| 2026-04-26 05:28 | 14.61956 | -60.35517 | 23999 ft | 337 kts | 328° |
| 2026-04-26 05:28 | 14.64018 | -60.36692 | 23996 ft | 336 kts | 328° |
| 2026-04-26 05:29 | 14.65995 | -60.37965 | 23993 ft | 334 kts | 320° |
| 2026-04-26 05:29 | 14.67728 | -60.39526 | 23995 ft | 331 kts | 312° |
| 2026-04-26 05:29 | 14.69319 | -60.41230 | 23994 ft | 331 kts | 310° |
| 2026-04-26 05:29 | 14.70901 | -60.42946 | 23994 ft | 331 kts | 311° |
| 2026-04-26 05:30 | 14.72508 | -60.44644 | 23994 ft | 331 kts | 311° |
| 2026-04-26 05:30 | 14.74127 | -60.46314 | 23994 ft | 331 kts | 312° |
| 2026-04-26 05:30 | 14.75774 | -60.47992 | 23994 ft | 331 kts | 312° |
| 2026-04-26 05:30 | 14.77408 | -60.49652 | 23993 ft | 331 kts | 312° |
| 2026-04-26 05:31 | 14.79045 | -60.51314 | 23994 ft | 331 kts | 312° |
| 2026-04-26 05:31 | 14.80702 | -60.52998 | 23993 ft | 331 kts | 312° |
| 2026-04-26 05:31 | 14.82340 | -60.54666 | 23994 ft | 331 kts | 312° |
| 2026-04-26 05:31 | 14.83974 | -60.56334 | 23993 ft | 331 kts | 312° |
| 2026-04-26 05:32 | 14.85620 | -60.58020 | 23993 ft | 331 kts | 312° |
| 2026-04-26 05:32 | 14.87253 | -60.59696 | 23993 ft | 331 kts | 312° |
| 2026-04-26 05:32 | 14.88888 | -60.61374 | 23993 ft | 331 kts | 312° |
| 2026-04-26 05:32 | 14.90511 | -60.63040 | 23993 ft | 331 kts | 312° |
| 2026-04-26 05:33 | 14.92148 | -60.64719 | 23994 ft | 331 kts | 312° |
| 2026-04-26 05:33 | 14.93779 | -60.66393 | 23993 ft | 331 kts | 312° |
| 2026-04-26 05:33 | 14.95426 | -60.68082 | 23993 ft | 331 kts | 312° |
| 2026-04-26 05:33 | 14.97059 | -60.69758 | 23993 ft | 331 kts | 312° |
| 2026-04-26 05:34 | 14.98697 | -60.71439 | 23993 ft | 331 kts | 312° |
| 2026-04-26 05:34 | 15.00324 | -60.73108 | 23993 ft | 331 kts | 312° |
| 2026-04-26 05:34 | 15.01977 | -60.74805 | 23993 ft | 331 kts | 312° |
| 2026-04-26 05:34 | 15.03607 | -60.76480 | 23993 ft | 332 kts | 311° |
| 2026-04-26 05:35 | 15.05238 | -60.78150 | 23993 ft | 332 kts | 311° |
| 2026-04-26 05:35 | 15.06871 | -60.79820 | 23993 ft | 332 kts | 311° |
| 2026-04-26 05:35 | 15.08533 | -60.81522 | 23993 ft | 332 kts | 311° |
| 2026-04-26 05:35 | 15.10157 | -60.83193 | 23993 ft | 332 kts | 311° |
| 2026-04-26 05:36 | 15.11787 | -60.84876 | 23993 ft | 332 kts | 311° |
| 2026-04-26 05:36 | 15.13420 | -60.86561 | 23993 ft | 332 kts | 311° |
| 2026-04-26 05:36 | 15.15044 | -60.88236 | 23993 ft | 332 kts | 311° |
| 2026-04-26 05:36 | 15.16670 | -60.89912 | 23993 ft | 332 kts | 311° |
| 2026-04-26 05:37 | 15.18317 | -60.91607 | 23994 ft | 332 kts | 311° |
| 2026-04-26 05:37 | 15.19948 | -60.93287 | 23994 ft | 332 kts | 311° |
| 2026-04-26 05:37 | 15.21576 | -60.94962 | 23994 ft | 332 kts | 311° |
| 2026-04-26 05:37 | 15.23221 | -60.96653 | 23994 ft | 331 kts | 311° |
| 2026-04-26 05:38 | 15.24880 | -60.98359 | 23993 ft | 331 kts | 311° |
| 2026-04-26 05:38 | 15.26498 | -61.00027 | 23993 ft | 331 kts | 311° |
| 2026-04-26 05:38 | 15.28120 | -61.01698 | 23993 ft | 331 kts | 311° |
| 2026-04-26 05:38 | 15.29751 | -61.03373 | 23993 ft | 331 kts | 311° |
| 2026-04-26 05:39 | 15.31404 | -61.05074 | 23993 ft | 331 kts | 311° |
| 2026-04-26 05:39 | 15.33039 | -61.06761 | 23994 ft | 331 kts | 311° |
| 2026-04-26 05:39 | 15.34136 | -61.07896 | 23993 ft | 331 kts | 311° |
| 2026-04-26 05:39 | 15.35760 | -61.09576 | 23993 ft | 331 kts | 311° |
| 2026-04-26 05:40 | 15.37930 | -61.11821 | 23993 ft | 331 kts | 311° |
| 2026-04-26 05:40 | 15.39015 | -61.12943 | 23993 ft | 331 kts | 311° |
| 2026-04-26 05:40 | 15.40654 | -61.14636 | 23993 ft | 331 kts | 311° |
| 2026-04-26 05:40 | 15.42283 | -61.16319 | 23994 ft | 331 kts | 311° |
| 2026-04-26 05:41 | 15.43909 | -61.17998 | 23993 ft | 331 kts | 311° |
| 2026-04-26 05:41 | 15.45560 | -61.19703 | 23993 ft | 331 kts | 311° |
| 2026-04-26 05:41 | 15.47185 | -61.21383 | 23993 ft | 331 kts | 311° |
| 2026-04-26 05:41 | 15.48819 | -61.23070 | 23993 ft | 331 kts | 311° |
| 2026-04-26 05:42 | 15.50464 | -61.24771 | 23993 ft | 331 kts | 311° |
| 2026-04-26 05:42 | 15.52094 | -61.26457 | 23993 ft | 331 kts | 311° |
| 2026-04-26 05:42 | 15.53720 | -61.28133 | 23993 ft | 332 kts | 312° |
| 2026-04-26 05:42 | 15.55552 | -61.29604 | 23991 ft | 337 kts | 325° |
| 2026-04-26 05:43 | 15.57695 | -61.30599 | 23995 ft | 341 kts | 337° |
| 2026-04-26 05:43 | 15.59983 | -61.31328 | 23995 ft | 342 kts | 340° |
| 2026-04-26 05:43 | 15.62239 | -61.32009 | 23994 ft | 342 kts | 340° |
| 2026-04-26 05:43 | 15.64536 | -61.32739 | 23994 ft | 342 kts | 339° |
| 2026-04-26 05:44 | 15.66786 | -61.33492 | 23994 ft | 341 kts | 338° |
| 2026-04-26 05:44 | 15.69038 | -61.34272 | 23994 ft | 341 kts | 338° |
| 2026-04-26 05:44 | 15.71278 | -61.35057 | 23994 ft | 341 kts | 338° |
| 2026-04-26 05:44 | 15.73538 | -61.35847 | 23994 ft | 341 kts | 338° |
| 2026-04-26 05:45 | 15.75781 | -61.36623 | 23856 ft | 345 kts | 338° |
| 2026-04-26 05:45 | 15.78105 | -61.37425 | 23378 ft | 360 kts | 338° |
| 2026-04-26 05:45 | 15.80545 | -61.38264 | 22858 ft | 368 kts | 339° |
| 2026-04-26 05:45 | 15.82954 | -61.39086 | 22382 ft | 363 kts | 339° |
| 2026-04-26 05:46 | 15.85313 | -61.39890 | 21917 ft | 358 kts | 339° |
| 2026-04-26 05:46 | 15.87438 | -61.40615 | 21498 ft | 353 kts | 339° |
| 2026-04-26 05:46 | 15.88416 | -61.40950 | 21296 ft | 354 kts | 339° |
| 2026-04-26 05:46 | 15.90757 | -61.41754 | 20837 ft | 349 kts | 339° |
| 2026-04-26 05:47 | 15.93038 | -61.42536 | 20386 ft | 346 kts | 339° |
| 2026-04-26 05:47 | 15.95297 | -61.43309 | 19940 ft | 343 kts | 339° |
| 2026-04-26 05:47 | 15.97544 | -61.44080 | 19495 ft | 340 kts | 339° |
| 2026-04-26 05:47 | 15.99774 | -61.44844 | 19053 ft | 338 kts | 339° |
| 2026-04-26 05:48 | 16.02016 | -61.45611 | 18609 ft | 335 kts | 339° |
| 2026-04-26 05:48 | 16.04227 | -61.46369 | 18165 ft | 334 kts | 339° |
| 2026-04-26 05:48 | 16.06413 | -61.47119 | 17722 ft | 332 kts | 339° |
| 2026-04-26 05:48 | 16.08587 | -61.47866 | 17285 ft | 330 kts | 339° |
| 2026-04-26 05:49 | 16.10744 | -61.48607 | 16866 ft | 327 kts | 339° |
| 2026-04-26 05:49 | 16.15036 | -61.50078 | 16020 ft | 320 kts | 340° |
| 2026-04-26 05:49 | 16.17137 | -61.50796 | 15604 ft | 313 kts | 340° |
| 2026-04-26 05:50 | 16.19177 | -61.51495 | 15199 ft | 305 kts | 340° |
| 2026-04-26 05:50 | 16.21157 | -61.52175 | 14806 ft | 298 kts | 340° |
| 2026-04-26 05:50 | 16.23100 | -61.52843 | 14421 ft | 294 kts | 340° |
| 2026-04-26 05:50 | 16.25034 | -61.53511 | 14031 ft | 289 kts | 339° |
| 2026-04-26 05:51 | 16.26843 | -61.54357 | 13592 ft | 284 kts | 327° |
| 2026-04-26 05:51 | 16.28416 | -61.55506 | 13156 ft | 274 kts | 319° |
| 2026-04-26 05:51 | 16.29882 | -61.56757 | 12725 ft | 265 kts | 318° |
| 2026-04-26 05:51 | 16.31272 | -61.57959 | 12315 ft | 258 kts | 318° |
| 2026-04-26 05:52 | 16.32640 | -61.59133 | 11914 ft | 254 kts | 318° |
| 2026-04-26 05:52 | 16.34026 | -61.60313 | 11513 ft | 256 kts | 319° |
| 2026-04-26 05:52 | 16.35426 | -61.61513 | 11173 ft | 254 kts | 318° |
| 2026-04-26 05:52 | 16.36799 | -61.62705 | 10791 ft | 253 kts | 317° |
| 2026-04-26 05:53 | 16.38154 | -61.63880 | 10414 ft | 253 kts | 317° |
| 2026-04-26 05:53 | 16.39485 | -61.65045 | 10041 ft | 252 kts | 317° |
| 2026-04-26 05:53 | 16.40816 | -61.66225 | 9665 ft | 251 kts | 317° |
| 2026-04-26 05:53 | 16.42153 | -61.67390 | 9290 ft | 251 kts | 320° |
| 2026-04-26 05:54 | 16.43558 | -61.68503 | 8910 ft | 251 kts | 322° |
| 2026-04-26 05:54 | 16.44960 | -61.69574 | 8536 ft | 251 kts | 322° |
| 2026-04-26 05:54 | 16.46370 | -61.70644 | 8156 ft | 245 kts | 322° |
| 2026-04-26 05:54 | 16.47714 | -61.71667 | 7777 ft | 235 kts | 322° |
| 2026-04-26 05:55 | 16.49005 | -61.72654 | 7436 ft | 227 kts | 322° |
| 2026-04-26 05:55 | 16.50291 | -61.73640 | 7079 ft | 229 kts | 322° |
| 2026-04-26 05:55 | 16.51076 | -61.74357 | 6817 ft | 230 kts | 309° |
| 2026-04-26 05:55 | 16.51728 | -61.75837 | 6444 ft | 227 kts | 278° |
| 2026-04-26 05:56 | 16.51563 | -61.77443 | 6069 ft | 225 kts | 248° |
| 2026-04-26 05:56 | 16.50620 | -61.78727 | 5691 ft | 223 kts | 217° |
| 2026-04-26 05:56 | 16.49219 | -61.79313 | 5344 ft | 220 kts | 189° |
| 2026-04-26 05:56 | 16.47717 | -61.79396 | 5072 ft | 214 kts | 181° |
| 2026-04-26 05:57 | 16.46236 | -61.79393 | 4792 ft | 210 kts | 180° |
| 2026-04-26 05:57 | 16.44795 | -61.79391 | 4516 ft | 206 kts | 180° |
| 2026-04-26 05:57 | 16.43343 | -61.79397 | 4239 ft | 208 kts | 180° |
| 2026-04-26 05:57 | 16.41905 | -61.79411 | 3965 ft | 208 kts | 180° |
| 2026-04-26 05:58 | 16.40461 | -61.79432 | 3736 ft | 206 kts | 180° |
| 2026-04-26 05:58 | 16.39068 | -61.79368 | 3650 ft | 197 kts | 173° |
| 2026-04-26 05:58 | 16.37743 | -61.79172 | 3609 ft | 188 kts | 171° |
| 2026-04-26 05:58 | 16.36489 | -61.78974 | 3616 ft | 176 kts | 170° |
| 2026-04-26 05:59 | 16.35275 | -61.78787 | 3620 ft | 174 kts | 170° |
| 2026-04-26 05:59 | 16.34102 | -61.78545 | 3601 ft | 171 kts | 165° |
| 2026-04-26 05:59 | 16.32991 | -61.78172 | 3583 ft | 167 kts | 150° |
| 2026-04-26 05:59 | 16.32190 | -61.77328 | 3596 ft | 166 kts | 122° |
| 2026-04-26 06:00 | 16.31693 | -61.76250 | 3598 ft | 168 kts | 112° |
| 2026-04-26 06:00 | 16.31273 | -61.75103 | 3593 ft | 166 kts | 110° |
| 2026-04-26 06:00 | 16.30894 | -61.73973 | 3590 ft | 164 kts | 109° |
| 2026-04-26 06:00 | 16.30552 | -61.72855 | 3585 ft | 159 kts | 108° |
| 2026-04-26 06:01 | 16.30256 | -61.71760 | 3454 ft | 154 kts | 107° |
| 2026-04-26 06:01 | 16.30000 | -61.70692 | 3279 ft | 150 kts | 106° |
| 2026-04-26 06:01 | 16.29769 | -61.69658 | 3111 ft | 144 kts | 106° |
| 2026-04-26 06:01 | 16.29549 | -61.68640 | 2919 ft | 141 kts | 105° |
| 2026-04-26 06:02 | 16.29340 | -61.67654 | 2716 ft | 139 kts | 106° |
| 2026-04-26 06:02 | 16.29137 | -61.66686 | 2518 ft | 135 kts | 106° |
| 2026-04-26 06:02 | 16.28940 | -61.65729 | 2327 ft | 133 kts | 105° |
| 2026-04-26 06:02 | 16.28749 | -61.64793 | 2144 ft | 133 kts | 105° |
| 2026-04-26 06:03 | 16.28557 | -61.63854 | 1958 ft | 133 kts | 105° |
| 2026-04-26 06:03 | 16.28368 | -61.62908 | 1770 ft | 134 kts | 105° |
| 2026-04-26 06:03 | 16.28182 | -61.61959 | 1574 ft | 131 kts | 104° |
| 2026-04-26 06:03 | 16.28008 | -61.61050 | 1389 ft | 125 kts | 104° |
| 2026-04-26 06:04 | 16.27842 | -61.60170 | 1221 ft | 124 kts | 104° |
| 2026-04-26 06:04 | 16.27675 | -61.59287 | 1046 ft | 124 kts | 104° |
| 2026-04-26 06:04 | 16.27503 | -61.58388 | 866 ft | 125 kts | 104° |
| 2026-04-26 06:04 | 16.27335 | -61.57505 | 701 ft | 124 kts | 105° |
| 2026-04-26 06:05 | 16.27156 | -61.56623 | 523 ft | 125 kts | 104° |
| 2026-04-26 06:05 | 16.26996 | -61.55736 | 355 ft | 125 kts | 103° |
| 2026-04-26 06:05 | 16.26840 | -61.54840 | 131 ft | 122 kts | 103° |
| 2026-04-26 06:05 | 16.26690 | -61.54040 | 44 ft | 96 kts | 101° |
| 2026-04-26 06:06 | 16.26591 | -61.53496 | 44 ft | 63 kts | 101° |
| 2026-04-26 06:06 | 16.26547 | -61.53273 | 44 ft | 14 kts | 102° |
| 2026-04-26 06:06 | 16.26529 | -61.53217 | 44 ft | 8 kts | 124° |
| 2026-04-26 06:06 | 16.26473 | -61.53190 | 44 ft | 3 kts | 165° |
| 2026-04-26 06:07 | 16.26465 | -61.53188 | 44 ft | 6 kts | 163° |
| 2026-04-26 06:07 | 16.26402 | -61.53137 | 44 ft | 14 kts | 123° |
| 2026-04-26 06:07 | 16.26364 | -61.53022 | 44 ft | 19 kts | 101° |
| 2026-04-26 06:08 | 16.26338 | -61.52877 | 44 ft | 22 kts | 100° |
| 2026-04-26 06:08 | 16.26308 | -61.52702 | 44 ft | 24 kts | 99° |
| 2026-04-26 06:08 | 16.26289 | -61.52647 | 44 ft | 7 kts | 152° |
| 2026-04-26 06:08 | 16.26257 | -61.52644 | 44 ft | 0 kts | 186° |